Time;durP1;ratioP1;P1;durP2;ratioP2;P2;SDS_P1;SDS_P2;PMS_P1;PMS_P2;Temp;Humidity;BMP_temperature;BMP_pressure;BME280_temperature;BME280_humidity;BME280_pressure;Samples;Min_cycle;Max_cycle;Signal;HPM_P1;HPM_P2
2022/09/01 00:00:22;;;;;;;;;;;;;;;11.73;74.04;101235.09;1678545;85;20523;-73
2022/09/01 00:02:50;;;;;;;;;;;;;;;11.70;74.11;101232.70;1683027;84;20178;-74
2022/09/01 00:05:16;;;;;;;;;;;;;;;11.65;74.16;101226.97;1675441;83;20194;-73
2022/09/01 00:07:41;;;;;;;;;;;;;;;11.60;74.22;101229.30;1689082;84;20772;-73
2022/09/01 00:10:08;;;;;;;;;;;;;;;11.55;74.27;101231.09;1687779;84;20284;-73
2022/09/01 00:12:35;;;;;;;;;;;;;;;11.49;74.33;101220.55;1695683;83;20488;-73
2022/09/01 00:15:01;;;;;;;;;;;;;;;11.45;74.33;101229.02;1695942;83;21970;-73
2022/09/01 00:17:28;;;;;;;;;;;;;;;11.42;74.42;101226.16;1695813;83;20194;-73
2022/09/01 00:19:54;;;;;;;;;;;;;;;11.42;74.52;101226.16;1696144;83;20251;-73
2022/09/01 00:22:20;;;;;;;;;;;;;;;11.39;74.60;101223.81;1691359;84;20189;-73
2022/09/01 00:24:46;;;;;;;;;;;;;;;11.39;74.68;101221.14;1694686;83;20260;-73
2022/09/01 00:27:12;;;;;;;;;;;;;;;11.38;74.73;101226.13;1696122;84;21119;-73
2022/09/01 00:29:38;;;;;;;;;;;;;;;11.40;74.78;101219.28;1694093;84;20339;-73
2022/09/01 00:32:04;;;;;;;;;;;;;;;11.38;74.83;101218.61;1692536;83;20208;-73
2022/09/01 00:34:30;;;;;;;;;;;;;;;11.37;74.87;101217.77;1694123;84;20307;-73
2022/09/01 00:36:56;;;;;;;;;;;;;;;11.33;74.92;101220.40;1696068;84;20253;-73
2022/09/01 00:39:21;;;;;;;;;;;;;;;11.31;74.99;101220.22;1716295;83;21801;-73
2022/09/01 00:41:49;;;;;;;;;;;;;;;11.27;75.04;101219.69;1695639;83;20328;-73
2022/09/01 00:44:17;;;;;;;;;;;;;;;11.21;75.07;101217.64;1693976;84;20190;-73
2022/09/01 00:46:48;;;;;;;;;;;;;;;11.20;75.12;101217.30;1696214;83;20198;-73
2022/09/01 00:49:17;;;;;;;;;;;;;;;11.20;75.17;101219.96;1669027;84;20537;-73
2022/09/01 00:51:46;;;;;;;;;;;;;;;11.19;75.22;101220.13;1695969;84;21705;-73
2022/09/01 00:54:14;;;;;;;;;;;;;;;11.18;75.29;101219.29;1695851;84;20246;-73
2022/09/01 00:56:40;;;;;;;;;;;;;;;11.18;75.33;101213.95;1696089;83;20186;-73
2022/09/01 00:59:06;;;;;;;;;;;;;;;11.18;75.37;101215.28;1696094;84;20264;-73
2022/09/01 01:01:35;;;;;;;;;;;;;;;11.18;75.43;101213.95;1695424;84;20197;-73
2022/09/01 01:04:01;;;;;;;;;;;;;;;11.17;75.42;101214.94;1693632;83;21537;-73
2022/09/01 01:06:29;;;;;;;;;;;;;;;11.16;75.48;101211.91;1691779;84;20186;-73
2022/09/01 01:08:59;;;;;;;;;;;;;;;11.14;75.51;101216.58;1681735;83;20202;-73
2022/09/01 01:11:27;;;;;;;;;;;;;;;11.13;75.56;101216.23;1679920;85;20211;-73
2022/09/01 01:13:56;;;;;;;;;;;;;;;11.11;75.61;101213.37;1687932;85;20499;-73
2022/09/01 01:16:23;;;;;;;;;;;;;;;11.11;75.64;101218.72;1685913;85;21726;-73
2022/09/01 01:18:50;;;;;;;;;;;;;;;11.11;75.70;101214.22;1687979;83;39091;-73
2022/09/01 01:24:24;;;;;;;;;;;;;;;11.17;75.76;101216.77;1687536;85;20142;-73
2022/09/01 01:26:50;;;;;;;;;;;;;;;11.13;75.79;101220.72;1688424;85;20194;-73
2022/09/01 01:29:17;;;;;;;;;;;;;;;11.09;75.86;101220.19;1688184;83;21130;-74
2022/09/01 01:31:46;;;;;;;;;;;;;;;11.11;75.92;101224.06;1688321;83;20190;-73
2022/09/01 01:34:13;;;;;;;;;;;;;;;11.08;75.97;101217.20;1690387;84;20203;-73
2022/09/01 01:36:40;;;;;;;;;;;;;;;11.10;76.02;101221.88;1685072;85;20186;-73
2022/09/01 01:39:09;;;;;;;;;;;;;;;11.10;76.03;101225.88;1688581;85;20175;-73
2022/09/01 01:41:39;;;;;;;;;;;;;;;11.07;76.07;101224.86;1690467;84;21048;-73
2022/09/01 01:44:04;;;;;;;;;;;;;;;11.08;76.15;101229.22;1690269;85;20172;-73
2022/09/01 01:46:32;;;;;;;;;;;;;;;11.08;76.20;101219.87;1690149;84;20206;-73
2022/09/01 01:48:58;;;;;;;;;;;;;;;11.09;76.24;101225.53;1688186;83;20224;-73
2022/09/01 01:51:27;;;;;;;;;;;;;;;11.09;76.28;101225.53;1690551;85;20194;-73
2022/09/01 01:53:52;;;;;;;;;;;;;;;11.10;76.35;101229.05;1690351;84;21030;-73
2022/09/01 01:56:18;;;;;;;;;;;;;;;11.12;76.36;101221.22;1672911;83;20225;-73
2022/09/01 01:58:45;;;;;;;;;;;;;;;11.14;76.40;101216.58;1690570;83;20186;-73
2022/09/01 02:01:11;;;;;;;;;;;;;;;11.15;76.45;101224.94;1681753;83;20497;-73
2022/09/01 02:03:37;;;;;;;;;;;;;;;11.13;76.48;101221.56;1689000;85;20621;-73
2022/09/01 02:06:08;;;;;;;;;;;;;;;11.11;76.53;101218.23;1689391;83;21133;-73
2022/09/01 02:08:35;;;;;;;;;;;;;;;11.12;76.58;101217.21;1684897;84;20483;-74
2022/09/01 02:11:01;;;;;;;;;;;;;;;11.12;76.62;101216.40;1682313;85;20483;-73
2022/09/01 02:13:29;;;;;;;;;;;;;;;11.12;76.67;101214.55;1689621;83;20206;-73
2022/09/01 02:15:56;;;;;;;;;;;;;;;11.09;76.69;101224.69;1689814;83;20226;-73
2022/09/01 02:18:26;;;;;;;;;;;;;;;11.07;76.73;101223.52;1690527;83;21111;-73
2022/09/01 02:20:52;;;;;;;;;;;;;;;11.04;76.75;101218.49;1689734;85;20198;-73
2022/09/01 02:23:23;;;;;;;;;;;;;;;11.01;76.80;101218.80;1690280;83;20214;-73
2022/09/01 02:25:46;;;;;;;;;;;;;;;11.00;76.87;101217.12;1689992;83;20546;-73
2022/09/01 02:28:18;;;;;;;;;;;;;;;11.00;76.90;101213.11;1690488;85;20213;-74
2022/09/01 02:30:44;;;;;;;;;;;;;;;10.98;76.93;101212.41;1689412;83;21877;-73
2022/09/01 02:33:17;;;;;;;;;;;;;;;10.94;76.96;101209.73;1690001;83;20506;-73
2022/09/01 02:35:39;;;;;;;;;;;;;;;10.87;77.04;101205.47;1689047;83;20222;-73
2022/09/01 02:38:04;;;;;;;;;;;;;;;10.87;77.07;101203.33;1689943;83;20321;-73
2022/09/01 02:40:31;;;;;;;;;;;;;;;10.84;77.12;101203.11;1689513;85;20205;-73
2022/09/01 02:42:58;;;;;;;;;;;;;;;10.80;77.17;101202.25;1682210;83;21124;-73
2022/09/01 02:45:28;;;;;;;;;;;;;;;10.76;77.24;101204.88;1689531;84;20187;-73
2022/09/01 02:47:56;;;;;;;;;;;;;;;10.74;77.27;101205.50;1682506;85;20218;-73
2022/09/01 02:50:23;;;;;;;;;;;;;;;10.72;77.29;101206.16;1678259;84;20187;-73
2022/09/01 02:52:49;;;;;;;;;;;;;;;10.70;77.32;101197.45;1680307;84;20207;-73
2022/09/01 02:55:19;;;;;;;;;;;;;;;10.67;77.32;101204.43;1683364;84;21029;-73
2022/09/01 02:57:44;;;;;;;;;;;;;;;10.62;77.38;101204.06;1679248;85;20456;-73
2022/09/01 03:00:19;;;;;;;;;;;;;;;10.60;77.43;101202.02;1703903;83;20150;-73
2022/09/01 03:02:38;;;;;;;;;;;;;;;10.59;77.49;101209.70;1679592;84;20227;-73
2022/09/01 03:05:06;;;;;;;;;;;;;;;10.58;77.52;101209.34;1681000;84;20269;-74
2022/09/01 03:07:32;;;;;;;;;;;;;;;10.57;77.55;101211.16;1672516;83;21201;-73
2022/09/01 03:09:58;;;;;;;;;;;;;;;10.57;77.57;101212.99;1674103;85;20237;-73
2022/09/01 03:12:24;;;;;;;;;;;;;;;10.51;77.61;101209.95;1668094;85;20293;-73
2022/09/01 03:14:50;;;;;;;;;;;;;;;10.48;77.63;101208.89;1674298;85;20225;-73
2022/09/01 03:17:15;;;;;;;;;;;;;;;10.46;77.66;101209.55;1675452;85;20210;-73
2022/09/01 03:19:43;;;;;;;;;;;;;;;10.44;77.69;101213.36;1675107;85;21181;-73
2022/09/01 03:22:09;;;;;;;;;;;;;;;10.37;77.72;101214.94;1674004;85;20462;-73
2022/09/01 03:24:35;;;;;;;;;;;;;;;10.35;77.77;101208.90;1674190;85;20273;-73
2022/09/01 03:27:01;;;;;;;;;;;;;;;10.34;77.82;101216.58;1674403;84;20655;-73
2022/09/01 03:29:27;;;;;;;;;;;;;;;10.31;77.83;101217.69;1674640;84;20297;-73
2022/09/01 03:31:52;;;;;;;;;;;;;;;10.28;77.85;101212.66;1673506;85;21179;-73
2022/09/01 03:34:22;;;;;;;;;;;;;;;10.26;77.90;101215.98;1675011;85;20285;-73
2022/09/01 03:36:49;;;;;;;;;;;;;;;10.26;77.92;101218.64;1667869;84;20218;-73
2022/09/01 03:39:14;;;;;;;;;;;;;;;10.21;77.94;101224.89;1671469;85;20195;-73
2022/09/01 03:41:40;;;;;;;;;;;;;;;10.14;77.95;101226.93;1670419;84;20234;-73
2022/09/01 03:44:10;;;;;;;;;;;;;;;10.13;78.02;101215.94;1675355;85;21667;-73
2022/09/01 03:46:34;;;;;;;;;;;;;;;10.11;78.05;101222.73;1674843;85;20183;-73
2022/09/01 03:49:02;;;;;;;;;;;;;;;10.09;78.08;101220.73;1675155;85;20191;-73
2022/09/01 03:51:29;;;;;;;;;;;;;;;10.06;78.10;101222.36;1667316;84;20218;-74
2022/09/01 03:53:56;;;;;;;;;;;;;;;10.02;78.14;101227.63;1674936;85;20208;-73
2022/09/01 03:56:23;;;;;;;;;;;;;;;10.01;78.19;101233.94;1675214;85;21025;-73
2022/09/01 03:58:49;;;;;;;;;;;;;;;10.01;78.24;101232.60;1674813;85;20216;-73
2022/09/01 04:01:15;;;;;;;;;;;;;;;10.02;78.26;101224.96;1673708;85;20242;-73
2022/09/01 04:03:41;;;;;;;;;;;;;;;10.02;78.28;101228.96;1673111;84;20550;-73
2022/09/01 04:06:08;;;;;;;;;;;;;;;10.04;78.33;101228.30;1675437;84;20204;-73
2022/09/01 04:08:34;;;;;;;;;;;;;;;10.04;78.36;101220.31;1672941;84;21077;-73
2022/09/01 04:11:06;;;;;;;;;;;;;;;10.06;78.40;101225.02;1668990;85;20218;-73
2022/09/01 04:13:36;;;;;;;;;;;;;;;10.04;78.41;101229.64;1669068;85;20515;-73
2022/09/01 04:16:02;;;;;;;;;;;;;;;10.01;78.47;101229.94;1664633;85;20226;-74
2022/09/01 04:18:29;;;;;;;;;;;;;;;10.00;78.52;101228.25;1666632;85;20269;-73
2022/09/01 04:20:56;;;;;;;;;;;;;;;10.01;78.56;101232.60;1671691;84;21006;-73
2022/09/01 04:23:28;;;;;;;;;;;;;;;10.03;78.59;101230.62;1671761;84;20216;-73
2022/09/01 04:25:58;;;;;;;;;;;;;;;10.04;78.61;101225.16;1665351;84;20522;-73
2022/09/01 04:28:27;;;;;;;;;;;;;;;10.09;78.65;101230.05;1671384;85;20243;-73
2022/09/01 04:30:54;;;;;;;;;;;;;;;10.10;78.65;101227.72;1672830;85;20191;-73
2022/09/01 04:33:23;;;;;;;;;;;;;;;10.11;78.68;101227.23;1673074;84;21110;-73
2022/09/01 04:35:53;;;;;;;;;;;;;;;10.16;78.70;101224.52;1672088;85;20495;-73
2022/09/01 04:38:17;;;;;;;;;;;;;;;10.26;78.81;101223.98;1671397;84;20301;-74
2022/09/01 04:40:43;;;;;;;;;;;;;;;10.93;79.20;101224.05;1673397;85;21063;-73
2022/09/01 04:43:09;;;;;;;;;;;;;;;12.07;79.35;101219.91;1672526;85;20234;-74
2022/09/01 04:45:35;;;;;;;;;;;;;;;13.07;79.11;101229.77;1670654;85;21685;-73
2022/09/01 04:48:02;;;;;;;;;;;;;;;14.00;78.82;101230.59;1672688;85;20195;-73
2022/09/01 04:50:29;;;;;;;;;;;;;;;14.88;78.47;101227.21;1673684;85;20222;-74
2022/09/01 04:53:01;;;;;;;;;;;;;;;15.82;77.98;101226.28;1673888;85;20188;-74
2022/09/01 04:55:28;;;;;;;;;;;;;;;16.57;77.58;101225.27;1673669;85;20192;-74
2022/09/01 04:57:57;;;;;;;;;;;;;;;17.29;76.96;101220.14;1673796;85;21026;-74
2022/09/01 05:00:23;;;;;;;;;;;;;;;17.96;76.32;101225.05;1672685;85;20223;-74
2022/09/01 05:02:53;;;;;;;;;;;;;;;18.31;75.80;101222.66;1670748;85;20507;-74
2022/09/01 05:05:20;;;;;;;;;;;;;;;18.57;75.19;101219.80;1670428;85;20200;-74
2022/09/01 05:07:51;;;;;;;;;;;;;;;18.63;74.38;101218.98;1659877;85;20246;-74
2022/09/01 05:10:16;;;;;;;;;;;;;;;18.64;73.95;101220.66;1671488;85;21221;-74
2022/09/01 05:12:43;;;;;;;;;;;;;;;18.81;73.41;101217.39;1673015;84;20183;-74
2022/09/01 05:15:09;;;;;;;;;;;;;;;19.00;72.68;101212.25;1671458;85;20195;-74
2022/09/01 05:17:37;;;;;;;;;;;;;;;19.16;71.96;101215.39;1673191;85;20535;-75
2022/09/01 05:20:04;;;;;;;;;;;;;;;19.49;71.02;101218.16;1667332;84;20179;-74
2022/09/01 05:22:30;;;;;;;;;;;;;;;19.29;69.72;101220.80;1673857;85;21050;-74
2022/09/01 05:25:10;;;;;;;;;;;;;;;18.54;69.71;101220.21;1673592;85;20487;-74
2022/09/01 05:27:27;;;;;;;;;;;;;;;17.99;70.02;101224.66;1657743;85;20211;-74
2022/09/01 05:29:53;;;;;;;;;;;;;;;17.52;70.30;101221.80;1673659;85;20187;-74
2022/09/01 05:32:20;;;;;;;;;;;;;;;17.24;70.41;101221.22;1673508;85;20281;-75
2022/09/01 05:34:46;;;;;;;;;;;;;;;16.95;70.57;101226.24;1670054;85;21079;-74
2022/09/01 05:37:13;;;;;;;;;;;;;;;16.47;70.62;101216.09;1671773;84;20270;-74
2022/09/01 05:39:39;;;;;;;;;;;;;;;15.95;70.71;101212.19;1669093;85;20208;-74
2022/09/01 05:42:07;;;;;;;;;;;;;;;15.71;70.79;101215.13;1670127;85;20204;-74
2022/09/01 05:44:33;;;;;;;;;;;;;;;15.40;70.87;101219.25;1669848;84;20520;-74
2022/09/01 05:46:59;;;;;;;;;;;;;;;15.42;70.93;101217.20;1670026;84;21179;-74
2022/09/01 05:49:25;;;;;;;;;;;;;;;15.12;70.84;101220.83;1678176;84;20184;-74
2022/09/01 05:51:54;;;;;;;;;;;;;;;14.85;70.97;101212.27;1673326;84;20211;-73
2022/09/01 05:54:26;;;;;;;;;;;;;;;14.63;70.97;101217.62;1673651;85;20488;-74
2022/09/01 05:56:52;;;;;;;;;;;;;;;14.45;71.03;101225.42;1673717;84;20183;-74
2022/09/01 05:59:19;;;;;;;;;;;;;;;14.34;71.14;101227.14;1673714;85;21619;-74
2022/09/01 06:01:46;;;;;;;;;;;;;;;14.26;71.20;101239.20;1667801;84;20503;-74
2022/09/01 06:04:12;;;;;;;;;;;;;;;14.52;71.32;101234.11;1670319;84;20194;-74
2022/09/01 06:06:44;;;;;;;;;;;;;;;14.59;71.36;101232.40;1669924;85;20194;-74
2022/09/01 06:09:09;;;;;;;;;;;;;;;14.66;71.46;101236.89;1677492;85;20190;-70
2022/09/01 06:11:35;;;;;;;;;;;;;;;14.72;71.53;101234.00;1674832;84;21129;-70
2022/09/01 06:14:01;;;;;;;;;;;;;;;15.05;71.55;101236.83;1680486;85;20183;-70
2022/09/01 06:16:27;;;;;;;;;;;;;;;15.44;71.56;101233.51;1679198;85;20310;-70
2022/09/01 06:18:56;;;;;;;;;;;;;;;15.52;71.50;101235.83;1679149;84;20181;-70
2022/09/01 06:21:23;;;;;;;;;;;;;;;15.30;71.56;101236.98;1678002;84;20624;-70
2022/09/01 06:23:50;;;;;;;;;;;;;;;15.20;71.61;101243.08;1676974;85;21898;-71
2022/09/01 06:26:18;;;;;;;;;;;;;;;15.46;71.75;101240.87;1679811;84;20504;-70
2022/09/01 06:28:44;;;;;;;;;;;;;;;15.80;71.69;101243.60;1680400;84;20179;-71
2022/09/01 06:31:11;;;;;;;;;;;;;;;15.93;71.51;101241.14;1681306;84;20750;-70
2022/09/01 06:33:37;;;;;;;;;;;;;;;15.68;71.42;101246.43;1681159;85;20182;-70
2022/09/01 06:36:04;;;;;;;;;;;;;;;15.45;71.42;101241.88;1679446;85;21056;-70
2022/09/01 06:38:30;;;;;;;;;;;;;;;15.48;71.50;101246.92;1680510;84;20207;-71
2022/09/01 06:41:03;;;;;;;;;;;;;;;15.63;71.50;101247.47;1680440;85;20237;-70
2022/09/01 06:43:30;;;;;;;;;;;;;;;15.79;71.45;101247.34;1680434;85;20482;-70
2022/09/01 06:45:58;;;;;;;;;;;;;;;16.00;71.40;101250.14;1680641;85;20227;-70
2022/09/01 06:48:24;;;;;;;;;;;;;;;16.15;71.37;101250.97;1681044;85;21164;-71
2022/09/01 06:50:50;;;;;;;;;;;;;;;16.52;71.33;101250.55;1680261;84;20328;-71
2022/09/01 06:53:17;;;;;;;;;;;;;;;16.84;71.20;101243.41;1682190;84;20324;-70
2022/09/01 06:55:46;;;;;;;;;;;;;;;17.04;71.01;101248.50;1675327;84;20539;-71
2022/09/01 06:58:14;;;;;;;;;;;;;;;17.09;70.86;101242.55;1642996;85;20211;-71
2022/09/01 07:00:40;;;;;;;;;;;;;;;16.84;70.65;101243.41;1681626;84;21502;-70
2022/09/01 07:03:08;;;;;;;;;;;;;;;16.60;70.56;101246.44;1676143;84;20195;-71
2022/09/01 07:05:39;;;;;;;;;;;;;;;16.35;70.52;101249.41;1677261;84;20479;-71
2022/09/01 07:08:09;;;;;;;;;;;;;;;16.16;70.47;101256.69;1678695;84;20179;-71
2022/09/01 07:10:40;;;;;;;;;;;;;;;15.95;70.41;101251.20;1668461;84;20188;-71
2022/09/01 07:13:07;;;;;;;;;;;;;;;15.78;70.44;101255.06;1667146;85;21129;-71
2022/09/01 07:15:38;;;;;;;;;;;;;;;15.61;70.41;101252.20;1673255;84;20192;-70
2022/09/01 07:18:04;;;;;;;;;;;;;;;15.97;70.63;101259.94;1669936;84;20188;-71
2022/09/01 07:20:32;;;;;;;;;;;;;;;16.48;70.54;101258.16;1675010;84;20226;-71
2022/09/01 07:22:59;;;;;;;;;;;;;;;16.88;70.39;101263.56;1671745;84;20514;-71
2022/09/01 07:25:25;;;;;;;;;;;;;;;17.16;70.23;101260.97;1671780;84;21814;-71
2022/09/01 07:27:51;;;;;;;;;;;;;;;17.45;70.14;101260.31;1679245;84;20237;-70
2022/09/01 07:30:17;;;;;;;;;;;;;;;17.71;69.97;101258.91;1672132;85;20629;-71
2022/09/01 07:32:43;;;;;;;;;;;;;;;17.95;69.79;101263.35;1669080;84;20187;-71
2022/09/01 07:35:13;;;;;;;;;;;;;;;18.09;69.54;101262.08;1673648;84;20191;-71
2022/09/01 07:37:39;;;;;;;;;;;;;;;18.27;69.40;101255.66;1675200;84;22024;-71
2022/09/01 07:40:06;;;;;;;;;;;;;;;18.47;69.03;101256.63;1677397;84;20206;-71
2022/09/01 07:42:32;;;;;;;;;;;;;;;18.61;68.77;101262.95;1673750;85;20196;-72
2022/09/01 07:44:59;;;;;;;;;;;;;;;18.84;68.56;101260.73;1674364;84;20275;-72
2022/09/01 07:47:28;;;;;;;;;;;;;;;18.94;68.19;101259.83;1673580;84;20195;-72
2022/09/01 07:49:53;;;;;;;;;;;;;;;19.15;68.00;101259.68;1671211;85;21129;-73
2022/09/01 07:52:19;;;;;;;;;;;;;;;19.22;67.64;101257.83;1672981;85;20274;-73
2022/09/01 07:54:45;;;;;;;;;;;;;;;19.23;67.30;101258.66;1670537;85;20210;-73
2022/09/01 07:57:11;;;;;;;;;;;;;;;19.39;67.16;101257.74;1673088;85;20198;-74
2022/09/01 07:59:37;;;;;;;;;;;;;;;19.42;66.60;101256.00;1673229;84;20228;-73
2022/09/01 08:02:04;;;;;;;;;;;;;;;19.35;66.05;101252.97;1673923;85;21803;-73
2022/09/01 08:04:33;;;;;;;;;;;;;;;19.43;65.71;101264.44;1673687;85;20195;-73
2022/09/01 08:06:59;;;;;;;;;;;;;;;19.51;65.36;101266.12;1674088;84;20183;-73
2022/09/01 08:09:26;;;;;;;;;;;;;;;19.42;64.81;101269.53;1659550;85;20528;-73
2022/09/01 08:11:52;;;;;;;;;;;;;;;19.48;64.50;101271.11;1676714;84;20191;-73
2022/09/01 08:14:18;;;;;;;;;;;;;;;19.48;64.12;101269.76;1674085;85;21041;-72
2022/09/01 08:16:44;;;;;;;;;;;;;;;19.46;63.74;101269.14;1675360;84;20226;-73
2022/09/01 08:19:09;;;;;;;;;;;;;;;19.34;63.13;101274.29;1676184;84;20257;-72
2022/09/01 08:21:35;;;;;;;;;;;;;;;19.27;62.70;101273.45;1682552;84;20250;-73
2022/09/01 08:24:01;;;;;;;;;;;;;;;19.31;62.40;101272.84;1674362;84;20813;-73
2022/09/01 08:26:27;;;;;;;;;;;;;;;19.27;61.88;101274.28;1669610;84;21061;-71
2022/09/01 08:28:53;;;;;;;;;;;;;;;19.39;61.68;101275.33;1675184;85;20222;-74
2022/09/01 08:31:20;;;;;;;;;;;;;;;19.56;61.49;101280.39;1675099;84;20237;-75
2022/09/01 08:33:47;;;;;;;;;;;;;;;19.64;61.14;101280.16;1670162;85;20237;-75
2022/09/01 08:36:13;;;;;;;;;;;;;;;19.60;60.89;101278.39;1675760;84;20192;-75
2022/09/01 08:38:39;;;;;;;;;;;;;;;19.74;60.67;101275.16;1673023;84;21182;-75
2022/09/01 08:41:27;;;;;;;;;;;;;;;19.74;60.39;101275.16;1653142;85;20355;-75
2022/09/01 08:44:13;;;;;;;;;;;;;;;19.78;60.30;101268.30;1670686;84;20240;-75
2022/09/01 08:46:40;;;;;;;;;;;;;;;19.82;59.88;101270.91;1700595;83;20167;-75
2022/09/01 08:49:08;;;;;;;;;;;;;;;19.83;59.62;101272.06;1684097;83;20198;-75
2022/09/01 08:52:11;;;;;;;;;;;;;;;19.79;59.40;101275.39;1684231;83;21137;-75
2022/09/01 08:54:48;;;;;;;;;;;;;;;19.73;59.12;101271.66;1680690;83;20487;-74
2022/09/01 08:57:27;;;;;;;;;;;;;;;19.70;59.00;101265.83;1685371;85;20160;-74
2022/09/01 08:59:52;;;;;;;;;;;;;;;19.56;58.39;101274.98;1682084;84;20167;-74
2022/09/01 09:02:52;;;;;;;;;;;;;;;19.65;58.45;101273.72;1696203;83;20303;-74
2022/09/01 09:05:31;;;;;;;;;;;;;;;19.68;58.16;101277.36;1663559;86;21134;-74
2022/09/01 09:08:06;;;;;;;;;;;;;;;19.63;57.90;101277.17;1654516;85;20479;-74
2022/09/01 09:10:40;;;;;;;;;;;;;;;19.80;57.95;101262.17;1664307;85;20171;-74
2022/09/01 09:13:25;;;;;;;;;;;;;;;19.91;57.73;101271.02;1668624;85;20511;-74
2022/09/01 09:16:03;;;;;;;;;;;;;;;19.77;57.39;101272.07;1657818;85;20226;-74
2022/09/01 09:18:53;;;;;;;;;;;;;;;19.59;57.41;101272.69;1673932;85;21167;-74
2022/09/01 09:21:34;;;;;;;;;;;;;;;19.74;57.42;101267.88;1645472;85;20184;-75
2022/09/01 09:24:23;;;;;;;;;;;;;;;19.92;57.30;101261.83;1675725;84;20172;-74
2022/09/01 09:26:53;;;;;;;;;;;;;;;20.08;57.13;101270.89;1675131;85;20191;-74
2022/09/01 09:29:21;;;;;;;;;;;;;;;19.98;56.93;101265.59;1675709;84;20641;-73
2022/09/01 09:31:52;;;;;;;;;;;;;;;20.06;56.81;101262.12;1672984;85;21694;-74
2022/09/01 09:34:28;;;;;;;;;;;;;;;20.04;56.57;101260.17;1672318;84;20195;-74
2022/09/01 09:36:54;;;;;;;;;;;;;;;20.02;56.43;101264.94;1672545;84;20171;-74
2022/09/01 09:39:20;;;;;;;;;;;;;;;20.03;56.25;101263.07;1669453;84;20654;-74
2022/09/01 09:42:07;;;;;;;;;;;;;;;20.06;56.05;101266.19;1672323;84;20237;-74
2022/09/01 09:44:42;;;;;;;;;;;;;;;20.12;55.93;101256.41;1672685;84;21912;-75
2022/09/01 09:47:07;;;;;;;;;;;;;;;20.12;55.72;101251.83;1673241;84;20207;-74
2022/09/01 09:49:33;;;;;;;;;;;;;;;20.18;55.70;101255.03;1673247;84;20168;-74
2022/09/01 09:52:14;;;;;;;;;;;;;;;20.33;55.44;101258.38;1672106;84;20171;-74
2022/09/01 09:54:58;;;;;;;;;;;;;;;20.34;55.28;101255.95;1673564;84;20231;-74
2022/09/01 09:57:25;;;;;;;;;;;;;;;20.37;55.16;101255.52;1674913;84;20689;-74
2022/09/01 10:00:03;;;;;;;;;;;;;;;20.48;54.91;101261.35;1674252;84;20202;-74
2022/09/01 10:02:41;;;;;;;;;;;;;;;20.19;54.42;101257.23;1674128;84;20430;-75
2022/09/01 10:05:37;;;;;;;;;;;;;;;19.98;54.47;101260.18;1669506;84;20671;-75
2022/09/01 10:08:04;;;;;;;;;;;;;;;19.80;54.36;101256.76;1647878;85;20316;-74
2022/09/01 10:10:41;;;;;;;;;;;;;;;19.83;54.44;101257.69;1721021;81;21106;-79
2022/09/01 10:13:07;;;;;;;;;;;;;;;20.06;54.38;101255.36;1724601;81;20191;-73
2022/09/01 10:15:33;;;;;;;;;;;;;;;20.17;54.31;101245.23;1728868;81;20467;-74
2022/09/01 10:18:02;;;;;;;;;;;;;;;20.35;54.17;101254.91;1728613;80;20245;-73
2022/09/01 10:20:28;;;;;;;;;;;;;;;20.27;53.99;101253.78;1728952;81;20207;-74
2022/09/01 10:22:54;;;;;;;;;;;;;;;20.01;53.92;101259.23;1728974;81;21071;-71
2022/09/01 10:25:24;;;;;;;;;;;;;;;19.70;54.05;101255.00;1732628;81;20163;-71
2022/09/01 10:27:52;;;;;;;;;;;;;;;19.74;54.25;101247.58;1732478;81;20163;-71
2022/09/01 10:30:18;;;;;;;;;;;;;;;19.95;54.23;101258.70;1735400;81;20175;-71
2022/09/01 10:32:49;;;;;;;;;;;;;;;19.93;53.92;101255.39;1731450;81;20194;-74
2022/09/01 10:35:28;;;;;;;;;;;;;;;19.80;53.71;101244.58;1731537;81;21176;-74
2022/09/01 10:37:55;;;;;;;;;;;;;;;19.57;53.55;101252.27;1731713;82;20144;-72
2022/09/01 10:40:28;;;;;;;;;;;;;;;19.36;53.67;101245.14;1734604;81;20437;-71
2022/09/01 10:43:20;;;;;;;;;;;;;;;19.45;53.80;101243.95;1723879;82;20195;-70
2022/09/01 10:45:46;;;;;;;;;;;;;;;19.48;53.57;101244.05;1725195;81;20156;-70
2022/09/01 10:48:22;;;;;;;;;;;;;;;19.21;53.41;101239.92;1731642;82;21759;-70
2022/09/01 10:50:53;;;;;;;;;;;;;;;18.91;53.45;101234.05;1732015;82;20514;-71
2022/09/01 10:53:37;;;;;;;;;;;;;;;19.00;53.69;101242.79;1731513;82;20192;-71
2022/09/01 10:56:26;;;;;;;;;;;;;;;19.33;53.80;101239.64;1726477;82;20204;-70
2022/09/01 10:59:08;;;;;;;;;;;;;;;19.68;53.80;101231.34;1731266;81;20170;-70
2022/09/01 11:01:40;;;;;;;;;;;;;;;19.85;53.70;101235.28;1728548;81;21660;-70
2022/09/01 11:04:07;;;;;;;;;;;;;;;20.10;53.65;101236.30;1726340;82;20163;-70
2022/09/01 11:06:57;;;;;;;;;;;;;;;20.16;53.44;101234.08;1732544;81;20191;-71
2022/09/01 11:09:27;;;;;;;;;;;;;;;20.35;53.36;101237.30;1728013;81;20191;-71
2022/09/01 11:12:22;;;;;;;;;;;;;;;20.56;53.25;101232.12;1722696;81;20155;-71
2022/09/01 11:14:56;;;;;;;;;;;;;;;20.80;53.06;101240.03;1733447;81;21151;-70
2022/09/01 11:17:26;;;;;;;;;;;;;;;20.84;52.64;101235.32;1726866;81;20585;-70
2022/09/01 11:20:05;;;;;;;;;;;;;;;20.91;52.29;101233.41;1743903;81;20455;-70
2022/09/01 11:22:40;;;;;;;;;;;;;;;20.71;51.69;101238.62;1737564;82;20447;-70
2022/09/01 11:25:13;;;;;;;;;;;;;;;20.36;51.16;101240.33;1736272;81;20170;-70
2022/09/01 11:27:51;;;;;;;;;;;;;;;20.34;51.03;101234.80;1736205;82;21324;-70
2022/09/01 11:30:20;;;;;;;;;;;;;;;20.29;50.80;101238.69;1727125;82;20453;-70
2022/09/01 11:32:48;;;;;;;;;;;;;;;20.17;50.54;101234.41;1735278;82;20164;-70
2022/09/01 11:35:16;;;;;;;;;;;;;;;20.04;50.18;101233.60;1725195;81;20188;-74
2022/09/01 11:37:42;;;;;;;;;;;;;;;19.89;50.05;101237.89;1744521;81;20463;-74
2022/09/01 11:40:09;;;;;;;;;;;;;;;19.80;50.01;101236.45;1752262;81;21136;-74
2022/09/01 11:42:42;;;;;;;;;;;;;;;19.86;50.09;101241.02;1733696;81;20193;-73
2022/09/01 11:45:19;;;;;;;;;;;;;;;19.80;50.05;101241.35;1724054;81;20506;-74
2022/09/01 11:47:50;;;;;;;;;;;;;;;19.83;50.03;101240.09;1716884;81;20405;-74
2022/09/01 11:50:27;;;;;;;;;;;;;;;19.85;50.09;101240.19;1731838;81;20174;-74
2022/09/01 11:53:02;;;;;;;;;;;;;;;19.87;50.11;101235.92;1739289;82;21696;-74
2022/09/01 11:55:30;;;;;;;;;;;;;;;19.83;50.16;101243.64;1739174;81;20151;-74
2022/09/01 11:57:56;;;;;;;;;;;;;;;19.84;50.21;101241.22;1739498;82;20221;-74
2022/09/01 12:00:28;;;;;;;;;;;;;;;19.85;50.24;101240.19;1720962;82;20173;-74
2022/09/01 12:02:54;;;;;;;;;;;;;;;19.97;50.23;101247.67;1719390;81;20162;-74
2022/09/01 12:05:34;;;;;;;;;;;;;;;20.19;50.05;101240.97;1723548;81;21081;-74
2022/09/01 12:08:02;;;;;;;;;;;;;;;20.36;49.70;101241.69;1729643;81;20191;-73
2022/09/01 12:10:31;;;;;;;;;;;;;;;20.46;49.58;101233.62;1717381;82;20191;-73
2022/09/01 12:13:08;;;;;;;;;;;;;;;20.44;49.45;101233.30;1737021;82;20191;-73
2022/09/01 12:15:37;;;;;;;;;;;;;;;20.37;49.40;101240.62;1738818;82;20187;-74
2022/09/01 12:18:21;;;;;;;;;;;;;;;20.33;49.35;101240.77;1738909;82;21097;-73
2022/09/01 12:20:48;;;;;;;;;;;;;;;20.09;48.96;101233.27;1719069;82;20146;-73
2022/09/01 12:23:20;;;;;;;;;;;;;;;19.92;48.98;101230.18;1739234;81;20179;-73
2022/09/01 12:25:47;;;;;;;;;;;;;;;19.91;48.93;101228.50;1735740;82;20148;-73
2022/09/01 12:28:13;;;;;;;;;;;;;;;19.86;48.92;101219.36;1729451;81;20166;-73
2022/09/01 12:30:39;;;;;;;;;;;;;;;19.85;49.01;101223.11;1739166;82;21047;-73
2022/09/01 12:33:06;;;;;;;;;;;;;;;19.80;49.06;101217.51;1739073;82;20183;-73
2022/09/01 12:35:32;;;;;;;;;;;;;;;19.83;49.13;101215.73;1722279;82;20157;-73
2022/09/01 12:38:21;;;;;;;;;;;;;;;20.01;49.14;101212.37;1739123;82;20178;-73
2022/09/01 12:40:49;;;;;;;;;;;;;;;20.17;49.09;101215.95;1720973;82;20450;-71
2022/09/01 12:43:35;;;;;;;;;;;;;;;20.34;49.12;101204.47;1717806;81;21690;-70
2022/09/01 12:46:03;;;;;;;;;;;;;;;20.52;48.96;101207.00;1716046;81;20157;-71
2022/09/01 12:48:34;;;;;;;;;;;;;;;20.65;48.89;101204.26;1712566;81;20205;-70